Altheimer, AR

12:11 PM CST on February 01, 2015 (GMT -0600)
Cornerstone Farms | Change Station
CLOSE
Current Station
Personal Weather Station
Location: Altheimer, AR
Elevation: 203 ft
Nearby Weather Stations
Active Advisory: Lake Wind Advisory

Elev 203 ft 34.24 °N, 91.76 °W | Updated 1 minute ago

Overcast
Overcast
58.4 °F
Feels Like 58.4 °F
N
6.0
Wind Variable Wind from SSW
Gusts 6.0 mph

Today
High -- | Low -- °F
--% Chance of Precip.
Yesterday
High -- | Low -- °F
Precip. -- in
7:05 AM 5:37 PM
Waxing Gibbous, 95% visible
Pressure 29.77 in
Visibility 6.0 miles
Clouds Overcast 800 ft
Dew Point 57 °F
Humidity 95%
Rainfall 0.15 in
Snow Depth Not available.
UV 1 out of 12
Pollen 5.20 out of 12
Air Quality Not available.
Flu Activity Not available.
METAR KPBF 011753Z AUTO 20014KT 6SM -RA BR OVC008 14/13 A2977 RMK AO2 RAB30 CIG 007V011 SLP081 P0003 60013 T01440133 10150 20111 58020

More Conditions Fewer Conditions

Pressure 29.77 in
Visibility 6.0 miles
Clouds Overcast 800 ft
Dew Point 57 °F
Humidity 95%
Rainfall 0.15 in
Snow Depth Not available.
UV 1 out of 12
Pollen 5.20 out of 12
Air Quality Not available.
Flu Activity Not available.
METAR KPBF 011753Z AUTO 20014KT 6SM -RA BR OVC008 14/13 A2977 RMK AO2 RAB30 CIG 007V011 SLP081 P0003 60013 T01440133 10150 20111 58020

More Conditions Fewer Conditions

10-Day Weather Forecast

Almanac

Astronomy

Feb. 01, 2015 Rise Set
Actual Time
Civil Twilight
Nautical Twilight
Astronomical Twilight
Moon
Length of Visible Light
Length of Day
Tomorrow will be .
, % of the Moon is Illuminated

Today's Extremes

State Highs State Lows

Community

WunderPhotos

Upload Photos

1,792,420 photos uploaded!

WunderBlogs® & News

Nearby

Air Quality

  Air Quality AQ Index Pollutant
Not available.

Snow Depth

Station Depth Elevation

Earthquake Activity

City Distance Mag. Time & Date
Minimum magnitude displayed is 2.5.

Coastal Water Temperatures

Place Temperature

Nearby Weather Stations